Time;durP1;ratioP1;P1;durP2;ratioP2;P2;SDS_P1;SDS_P2;PMS_P1;PMS_P2;Temp;Humidity;BMP_temperature;BMP_pressure;BME280_temperature;BME280_humidity;BME280_pressure;Samples;Min_cycle;Max_cycle;Signal;HPM_P1;HPM_P2
2021/12/19 00:08:28;;;;;;;54.58;21.67;;;;;;;-0.50;100.00;97393.25;5052199;28;24794;-71
2021/12/19 00:10:29;;;;;;;38.63;22.02;;;;;;;-0.44;100.00;97394.16;5053238;28;24468;-71
2021/12/19 00:12:57;;;;;;;39.30;20.10;;;;;;;-0.60;100.00;97396.56;5053159;28;24443;-71
2021/12/19 00:15:24;;;;;;;64.95;22.67;;;;;;;-0.74;100.00;97400.72;5052894;28;24442;-71
2021/12/19 00:17:50;;;;;;;59.63;19.80;;;;;;;-0.83;100.00;97396.41;5053054;28;24496;-71
2021/12/19 00:20:18;;;;;;;45.58;20.52;;;;;;;-0.80;100.00;97401.53;5052840;28;24422;-71
2021/12/19 00:22:44;;;;;;;39.08;18.73;;;;;;;-0.81;100.00;97397.28;5053129;28;24469;-71
2021/12/19 00:25:11;;;;;;;44.63;20.10;;;;;;;-0.85;100.00;97397.25;5052797;28;24469;-71
2021/12/19 00:27:38;;;;;;;46.17;21.00;;;;;;;-0.87;100.00;97379.41;5052818;28;24944;-71
2021/12/19 00:30:05;;;;;;;95.53;24.33;;;;;;;-0.91;100.00;97382.78;5044486;28;24452;-71
2021/12/19 00:32:31;;;;;;;96.50;21.90;;;;;;;-0.97;100.00;97370.84;5052599;28;24840;-70
2021/12/19 00:34:58;;;;;;;97.70;22.08;;;;;;;-1.09;100.00;97364.81;5052580;28;24420;-71
2021/12/19 00:37:26;;;;;;;116.10;22.13;;;;;;;-0.99;100.00;97372.53;5052653;28;24419;-71
2021/12/19 00:39:52;;;;;;;83.10;20.77;;;;;;;-0.89;100.00;97375.16;5052775;28;24419;-71
2021/12/19 00:42:30;;;;;;;163.77;21.30;;;;;;;-1.12;100.00;97385.13;5052732;28;24874;-71
2021/12/19 00:45:00;;;;;;;107.93;20.42;;;;;;;-1.07;100.00;97383.50;5052476;28;24423;-71
2021/12/19 00:47:26;;;;;;;69.88;20.40;;;;;;;-0.98;100.00;97379.31;5052414;28;24426;-71
2021/12/19 00:49:54;;;;;;;44.65;16.80;;;;;;;-1.03;100.00;97387.78;5052345;28;24415;-71
2021/12/19 00:52:21;;;;;;;19.58;16.92;;;;;;;-0.88;100.00;97380.25;5052507;28;24466;-71
2021/12/19 00:54:49;;;;;;;27.88;16.50;;;;;;;-0.69;100.00;97370.22;5052302;28;24426;-71
2021/12/19 00:57:15;;;;;;;38.05;18.48;;;;;;;-0.68;100.00;97372.75;5052503;28;24949;-71
2021/12/19 00:59:42;;;;;;;21.33;18.13;;;;;;;-0.56;100.00;97365.19;5043976;28;24821;-72
2021/12/19 01:02:08;;;;;;;25.40;18.42;;;;;;;-0.48;100.00;97357.66;5051606;28;24458;-71
2021/12/19 01:04:35;;;;;;;29.88;19.27;;;;;;;-0.78;100.00;97356.59;5052346;28;24419;-71
2021/12/19 01:07:02;;;;;;;33.10;18.25;;;;;;;-0.66;100.00;97355.84;5040438;28;24436;-71
2021/12/19 01:09:30;;;;;;;26.95;18.17;;;;;;;-0.63;100.00;97353.31;5041193;28;24469;-70
2021/12/19 01:11:58;;;;;;;33.40;18.90;;;;;;;-0.74;100.00;97353.25;5043473;28;24485;-71
2021/12/19 01:14:25;;;;;;;30.75;18.95;;;;;;;-0.84;100.00;97345.53;5045627;28;24434;-72
2021/12/19 01:16:51;;;;;;;73.50;21.13;;;;;;;-0.82;100.00;97326.88;5052007;28;24419;-71
2021/12/19 01:19:18;;;;;;;83.72;22.52;;;;;;;-0.94;100.00;97333.56;5052162;28;24415;-71
2021/12/19 01:21:45;;;;;;;34.20;19.27;;;;;;;-0.87;100.00;97341.25;5051901;28;24469;-71
2021/12/19 01:24:12;;;;;;;91.93;19.87;;;;;;;-0.90;100.00;97338.69;5040158;28;24520;-71
2021/12/19 01:26:39;;;;;;;120.13;19.33;;;;;;;-1.05;100.00;97344.50;5031542;28;24419;-71
2021/12/19 01:29:06;;;;;;;85.18;19.20;;;;;;;-1.08;100.00;97338.56;5042164;28;24455;-71
2021/12/19 01:31:33;;;;;;;68.45;16.52;;;;;;;-1.12;100.00;97334.28;5046668;28;24431;-71
2021/12/19 01:33:59;;;;;;;81.60;18.85;;;;;;;-1.10;100.00;97333.47;5051762;28;24439;-71
2021/12/19 01:36:26;;;;;;;57.60;19.23;;;;;;;-1.24;100.00;97325.72;5051451;28;24423;-71
2021/12/19 01:38:52;;;;;;;43.17;19.50;;;;;;;-1.23;100.00;97329.94;5051419;28;24953;-71
2021/12/19 01:41:19;;;;;;;56.13;19.70;;;;;;;-1.16;100.00;97323.22;5051448;28;24944;-72
2021/12/19 01:43:45;;;;;;;72.18;20.35;;;;;;;-1.20;100.00;97325.75;5051290;28;24836;-71
2021/12/19 01:46:13;;;;;;;83.70;20.13;;;;;;;-1.31;100.00;97318.88;5043329;28;24431;-71
2021/12/19 01:48:40;;;;;;;85.75;20.67;;;;;;;-1.23;100.00;97326.56;5051119;28;24794;-71
2021/12/19 01:51:07;;;;;;;97.47;20.98;;;;;;;-1.28;100.00;97326.53;5051266;28;24948;-71
2021/12/19 01:53:34;;;;;;;92.80;20.52;;;;;;;-1.29;100.00;97329.91;5051099;28;24458;-70
2021/12/19 01:56:03;;;;;;;85.18;17.60;;;;;;;-1.31;100.00;97323.97;5050806;28;24430;-71
2021/12/19 01:58:30;;;;;;;86.13;18.27;;;;;;;-1.25;100.00;97333.34;5051151;28;25050;-71
2021/12/19 02:00:58;;;;;;;106.07;19.15;;;;;;;-1.34;100.00;97329.00;5042921;28;24435;-71
2021/12/19 02:03:26;;;;;;;50.10;18.67;;;;;;;-1.23;100.00;97326.56;5051211;28;24418;-71
2021/12/19 02:05:53;;;;;;;96.43;18.63;;;;;;;-1.29;100.00;97337.53;5051218;28;24419;-71
2021/12/19 02:08:19;;;;;;;47.33;16.63;;;;;;;-1.25;100.00;97340.97;5050834;28;24624;-71
2021/12/19 02:10:46;;;;;;;76.53;17.42;;;;;;;-1.16;100.00;97341.03;5050811;28;24415;-71
2021/12/19 02:13:15;;;;;;;22.92;17.65;;;;;;;-1.04;100.00;97330.97;5050699;28;24446;-71
2021/12/19 02:15:43;;;;;;;59.85;17.83;;;;;;;-1.02;100.00;97339.47;5050004;28;24435;-71
2021/12/19 02:18:12;;;;;;;32.38;17.00;;;;;;;-0.90;100.00;97343.78;5039056;28;24439;-71
2021/12/19 02:20:42;;;;;;;32.58;15.90;;;;;;;-0.83;100.00;97342.13;5031073;28;24470;-71
2021/12/19 02:23:10;;;;;;;146.30;18.45;;;;;;;-1.02;100.00;97342.00;5030623;28;24416;-70
2021/12/19 02:25:37;;;;;;;37.90;15.98;;;;;;;-1.10;100.00;97333.47;5030481;28;24949;-71
2021/12/19 02:28:04;;;;;;;25.33;16.02;;;;;;;-1.00;100.00;97331.84;5035833;28;24426;-71
2021/12/19 02:30:31;;;;;;;22.67;16.33;;;;;;;-0.77;100.00;97332.00;5042373;28;24423;-71
2021/12/19 02:32:57;;;;;;;62.15;17.05;;;;;;;-0.71;100.00;97338.81;5050516;28;24443;-71
2021/12/19 02:35:28;;;;;;;49.60;16.13;;;;;;;-0.62;100.00;97332.09;5050257;28;24479;-71
2021/12/19 02:38:32;;;;;;;67.00;16.27;;;;;;;-0.55;100.00;97330.47;5050468;28;24945;-71
2021/12/19 02:49:22;;;;;;;31.10;15.55;;;;;;;-1.13;100.00;97312.25;5050809;28;24430;-70
2021/12/19 02:51:49;;;;;;;37.65;14.38;;;;;;;-0.94;100.00;97303.06;5050355;28;24427;-71
2021/12/19 02:54:17;;;;;;;53.60;14.93;;;;;;;-0.82;100.00;97303.97;5050169;28;24443;-71
2021/12/19 02:56:43;;;;;;;40.85;14.30;;;;;;;-0.77;100.00;97304.03;5050211;28;24450;-70
2021/12/19 02:59:10;;;;;;;61.80;16.17;;;;;;;-0.76;100.00;97288.75;5046739;28;24439;-71
2021/12/19 03:01:36;;;;;;;37.22;15.65;;;;;;;-0.90;100.00;97289.50;5045723;28;24431;-70
2021/12/19 03:04:03;;;;;;;30.25;14.75;;;;;;;-0.88;100.00;97303.97;5050339;28;24441;-71
2021/12/19 03:06:30;;;;;;;101.57;15.27;;;;;;;-1.00;100.00;97307.28;5049923;28;24836;-71
2021/12/19 03:09:02;;;;;;;73.32;14.00;;;;;;;-0.99;100.00;97303.88;5049880;28;24423;-71
2021/12/19 03:19:42;;;;;;;21.45;13.52;;;;;;;-1.12;100.00;97293.59;5050106;28;24425;-71
2021/12/19 03:22:08;;;;;;;85.30;13.75;;;;;;;-1.19;100.00;97294.38;5050178;28;24465;-70
2021/12/19 03:24:34;;;;;;;35.22;14.43;;;;;;;-1.03;100.00;97279.28;5050493;28;24469;-71
2021/12/19 03:27:03;;;;;;;145.90;15.95;;;;;;;-1.25;100.00;97282.50;5053412;28;24422;-71
2021/12/19 03:29:29;;;;;;;109.68;13.25;;;;;;;-1.35;100.00;97286.66;5047654;28;24481;-70
2021/12/19 03:31:56;;;;;;;99.65;13.57;;;;;;;-1.44;100.00;97283.19;5052173;28;24777;-71
2021/12/19 03:34:22;;;;;;;74.20;12.67;;;;;;;-1.28;100.00;97269.75;5054019;28;24443;-70
2021/12/19 03:36:48;;;;;;;139.65;15.57;;;;;;;-1.35;100.00;97271.41;5053699;28;24465;-70
2021/12/19 03:39:25;;;;;;;141.88;15.73;;;;;;;-1.48;100.00;97272.16;5053744;28;24422;-71
2021/12/19 03:41:54;;;;;;;82.00;13.53;;;;;;;-1.41;100.00;97271.34;5053794;28;25060;-71
2021/12/19 03:44:23;;;;;;;32.22;13.20;;;;;;;-1.28;100.00;97278.25;5053484;28;24936;-70
2021/12/19 03:46:50;;;;;;;28.83;14.10;;;;;;;-1.13;100.00;97271.56;5053441;28;24941;-70
2021/12/19 03:49:18;;;;;;;58.90;13.23;;;;;;;-1.04;100.00;97271.63;5053643;28;24427;-71
2021/12/19 03:51:45;;;;;;;47.35;13.27;;;;;;;-0.93;100.00;97259.81;5053624;28;24422;-71
2021/12/19 03:54:11;;;;;;;63.58;15.68;;;;;;;-1.10;100.00;97252.09;5053435;28;24443;-71
2021/12/19 03:56:38;;;;;;;78.10;16.23;;;;;;;-1.16;100.00;97251.19;5053174;28;24419;-71
2021/12/19 03:59:04;;;;;;;72.73;13.93;;;;;;;-1.01;100.00;97244.50;5050388;28;24471;-71
2021/12/19 04:01:32;;;;;;;35.60;14.90;;;;;;;-0.95;100.00;97255.59;5048110;28;24431;-70
2021/12/19 04:03:59;;;;;;;20.95;14.43;;;;;;;-0.95;100.00;97245.41;5053731;28;24420;-71
2021/12/19 04:06:26;;;;;;;54.17;14.30;;;;;;;-0.86;100.00;97242.91;5053106;28;24510;-70
2021/12/19 04:08:52;;;;;;;102.47;15.43;;;;;;;-1.19;100.00;97241.84;5053210;28;24469;-71
2021/12/19 04:11:19;;;;;;;74.15;14.10;;;;;;;-1.26;100.00;97240.09;5053132;28;24415;-71
2021/12/19 04:13:46;;;;;;;67.38;12.85;;;;;;;-1.28;100.00;97237.56;5052984;28;25049;-71
2021/12/19 04:16:12;;;;;;;59.73;13.93;;;;;;;-1.23;100.00;97240.13;5052935;28;24457;-71
2021/12/19 04:18:40;;;;;;;45.23;13.23;;;;;;;-1.19;100.00;97246.09;5053245;28;24423;-71
2021/12/19 04:21:07;;;;;;;41.35;13.15;;;;;;;-1.11;100.00;97232.59;5053023;28;24472;-70
2021/12/19 04:23:33;;;;;;;35.97;13.20;;;;;;;-1.13;100.00;97235.97;5053022;28;24423;-71
2021/12/19 04:26:00;;;;;;;82.15;12.50;;;;;;;-1.17;100.00;97236.81;5052432;28;24824;-70
2021/12/19 04:28:26;;;;;;;18.00;12.35;;;;;;;-1.09;100.00;97230.06;5052802;28;24961;-70
2021/12/19 04:30:53;;;;;;;41.08;11.85;;;;;;;-1.11;100.00;97224.97;5044700;28;24427;-71
2021/12/19 04:33:21;;;;;;;76.35;12.93;;;;;;;-1.23;100.00;97227.44;5052694;28;24443;-71
2021/12/19 04:35:49;;;;;;;32.60;11.75;;;;;;;-1.25;100.00;97224.88;5052441;28;24526;-70
2021/12/19 04:41:34;;;;;;;66.00;13.25;;;;;;;-1.30;100.00;97224.00;5052776;28;24860;-71
2021/12/19 04:52:39;;;;;;;30.38;12.43;;;;;;;-0.97;100.00;97220.81;5052734;28;24468;-70
2021/12/19 04:55:35;;;;;;;55.80;12.73;;;;;;;-1.14;100.00;97209.72;5052801;28;24828;-70
2021/12/19 04:58:16;;;;;;;56.37;12.00;;;;;;;-1.27;100.00;97208.75;5051019;28;24424;-71
2021/12/19 05:00:53;;;;;;;37.22;10.75;;;;;;;-1.27;100.00;97200.28;5046394;28;24535;-71
2021/12/19 05:03:30;;;;;;;27.67;11.60;;;;;;;-1.18;100.00;97205.44;5048271;28;24486;-70
2021/12/19 05:06:03;;;;;;;56.17;12.52;;;;;;;-1.26;100.00;97202.84;5045385;28;24778;-70
2021/12/19 05:14:12;;;;;;;45.17;12.25;;;;;;;-1.03;100.00;97217.41;5050189;28;24451;-70
2021/12/19 05:16:42;;;;;;;47.35;10.80;;;;;;;-0.96;100.00;97211.50;5051921;28;24522;-70
2021/12/19 05:19:19;;;;;;;26.02;11.25;;;;;;;-0.92;100.00;97217.47;5051868;28;24878;-71
2021/12/19 05:21:46;;;;;;;62.73;11.67;;;;;;;-1.03;100.00;97218.25;5052067;28;24524;-70
2021/12/19 05:24:21;;;;;;;12.10;10.80;;;;;;;-0.90;100.00;97228.47;5051894;28;24422;-70
2021/12/19 05:26:49;;;;;;;36.83;11.33;;;;;;;-0.97;100.00;97227.59;5051543;28;24475;-70
2021/12/19 05:29:16;;;;;;;22.00;10.77;;;;;;;-0.88;100.00;97225.13;5047677;28;24567;-71
2021/12/19 05:31:43;;;;;;;17.38;11.00;;;;;;;-0.83;100.00;97225.13;5047781;28;24435;-71
2021/12/19 05:34:10;;;;;;;37.27;11.13;;;;;;;-0.82;100.00;97226.81;5043528;28;24479;-71
2021/12/19 05:47:33;;;;;;;86.05;12.18;;;;;;;-1.05;100.00;97209.75;5051208;28;24832;-71
2021/12/19 05:50:00;;;;;;;49.10;11.60;;;;;;;-1.03;100.00;97209.78;5051493;28;24786;-71
2021/12/19 05:52:27;;;;;;;29.27;9.63;;;;;;;-1.04;100.00;97215.69;5045688;28;24790;-71
2021/12/19 05:54:54;;;;;;;39.03;10.07;;;;;;;-1.23;100.00;97213.03;5048599;28;24554;-71
2021/12/19 05:57:21;;;;;;;15.52;10.98;;;;;;;-1.16;100.00;97208.84;5051088;28;24485;-71
2021/12/19 05:59:47;;;;;;;25.00;10.93;;;;;;;-1.23;100.00;97214.72;5042707;28;24460;-71
2021/12/19 06:02:14;;;;;;;10.73;9.63;;;;;;;-1.08;100.00;97202.09;5039162;28;24789;-71
2021/12/19 06:04:40;;;;;;;22.85;10.68;;;;;;;-1.00;100.00;97203.00;5031100;28;24946;-71
2021/12/19 06:07:07;;;;;;;40.13;10.20;;;;;;;-1.14;100.00;97199.53;5030925;28;24416;-71
2021/12/19 06:09:33;;;;;;;22.92;10.65;;;;;;;-0.93;100.00;97191.16;5031060;28;25011;-70
2021/12/19 06:12:01;;;;;;;27.70;9.18;;;;;;;-0.94;100.00;97186.06;5030921;28;24977;-71
2021/12/19 06:14:32;;;;;;;43.70;11.43;;;;;;;-1.16;100.00;97185.94;5030549;28;24845;-71
2021/12/19 06:16:58;;;;;;;56.78;10.52;;;;;;;-1.30;100.00;97183.34;5030741;28;24424;-71
2021/12/19 06:19:25;;;;;;;28.83;9.00;;;;;;;-1.27;100.00;97185.03;5030759;28;24999;-71
2021/12/19 06:21:51;;;;;;;13.90;9.40;;;;;;;-1.11;100.00;97179.22;5031043;28;24969;-71
2021/12/19 06:24:18;;;;;;;19.38;9.15;;;;;;;-0.96;100.00;97178.44;5030908;28;24489;-71
2021/12/19 06:26:44;;;;;;;42.13;8.40;;;;;;;-0.64;100.00;97170.09;5030409;28;24455;-71
2021/12/19 06:29:12;;;;;;;37.60;9.02;;;;;;;-0.55;100.00;97170.97;5036946;28;24431;-71
2021/12/19 06:31:39;;;;;;;19.83;7.90;;;;;;;-0.52;100.00;97162.47;5038900;28;24439;-71
2021/12/19 06:34:05;;;;;;;19.27;8.43;;;;;;;-0.70;100.00;97157.34;5030563;28;24482;-71
2021/12/19 06:36:32;;;;;;;18.75;8.93;;;;;;;-0.70;100.00;97154.78;5030371;28;24974;-71
2021/12/19 06:38:58;;;;;;;49.83;10.50;;;;;;;-0.93;100.00;97153.00;5030531;28;24420;-71
2021/12/19 06:41:25;;;;;;;14.80;10.35;;;;;;;-0.84;100.00;97158.16;5030521;28;24497;-71
2021/12/19 06:43:51;;;;;;;26.42;10.30;;;;;;;-1.01;100.00;97150.44;5030818;28;24416;-71
2021/12/19 06:46:19;;;;;;;12.40;9.53;;;;;;;-0.97;100.00;97152.13;5030486;28;24519;-71
2021/12/19 06:48:45;;;;;;;27.13;9.90;;;;;;;-0.88;100.00;97153.06;5030312;28;24523;-71
2021/12/19 06:51:12;;;;;;;23.80;9.65;;;;;;;-0.79;100.00;97151.38;5030508;28;24825;-71
2021/12/19 06:53:38;;;;;;;25.25;9.43;;;;;;;-0.73;100.00;97153.94;5030408;28;24419;-71
2021/12/19 06:56:05;;;;;;;19.02;8.60;;;;;;;-0.73;100.00;97150.56;5029949;28;24790;-71
2021/12/19 06:58:31;;;;;;;26.17;9.50;;;;;;;-0.82;100.00;97153.91;5034547;28;24461;-71
2021/12/19 07:00:58;;;;;;;14.07;8.63;;;;;;;-0.75;100.00;97144.59;5039676;28;24493;-71
2021/12/19 07:03:26;;;;;;;13.48;8.80;;;;;;;-0.81;100.00;97145.44;5030405;28;24420;-71
2021/12/19 07:05:52;;;;;;;27.08;9.60;;;;;;;-0.75;100.00;97149.69;5029950;28;24447;-71
2021/12/19 07:08:21;;;;;;;10.80;9.63;;;;;;;-0.76;100.00;97148.84;5030122;28;24439;-71
2021/12/19 07:10:47;;;;;;;10.32;9.30;;;;;;;-0.71;100.00;97158.19;5030086;28;24474;-71
2021/12/19 07:13:18;;;;;;;61.60;9.10;;;;;;;-0.99;100.00;97143.66;5030736;28;24435;-72
2021/12/19 07:15:45;;;;;;;63.03;9.10;;;;;;;-1.26;100.00;97148.59;5047924;28;24538;-71
2021/12/19 07:18:11;;;;;;;17.13;7.05;;;;;;;-1.12;100.00;97157.16;5039748;28;24473;-71
2021/12/19 07:20:42;;;;;;;41.13;8.65;;;;;;;-0.97;100.00;97146.22;5046413;28;24994;-71
2021/12/19 07:23:09;;;;;;;62.38;9.02;;;;;;;-1.25;100.00;97150.31;5036742;28;24446;-71
2021/12/19 07:25:35;;;;;;;85.97;8.95;;;;;;;-1.37;100.00;97153.66;5043865;28;24434;-72
2021/12/19 07:28:02;;;;;;;106.80;9.77;;;;;;;-1.47;100.00;97154.44;5042617;28;24462;-71
2021/12/19 07:30:30;;;;;;;42.10;7.53;;;;;;;-1.27;100.00;97163.00;5046486;28;24454;-71
2021/12/19 07:32:57;;;;;;;24.67;6.80;;;;;;;-1.32;100.00;97158.75;5041565;28;24515;-71
2021/12/19 07:35:25;;;;;;;26.07;8.00;;;;;;;-1.22;100.00;97158.81;5049568;28;24501;-72
2021/12/19 07:37:55;;;;;;;8.00;6.70;;;;;;;-1.12;100.00;97157.16;5049719;28;24504;-72
2021/12/19 07:40:23;;;;;;;13.63;6.85;;;;;;;-1.01;100.00;97154.66;5050466;28;24503;-72
2021/12/19 07:42:50;;;;;;;27.45;7.00;;;;;;;-0.95;100.00;97157.25;5050034;28;24423;-72
2021/12/19 07:45:17;;;;;;;13.82;8.23;;;;;;;-0.88;100.00;97153.91;5049621;28;24465;-72
2021/12/19 07:47:45;;;;;;;31.25;8.60;;;;;;;-0.92;100.00;97151.34;5049659;28;24515;-73
2021/12/19 07:50:13;;;;;;;19.77;7.88;;;;;;;-0.98;100.00;97155.53;5049654;28;25018;-72
2021/12/19 07:52:40;;;;;;;32.17;8.57;;;;;;;-1.04;100.00;97152.09;5050045;28;24430;-70
2021/12/19 07:55:08;;;;;;;33.63;7.20;;;;;;;-1.18;100.00;97158.84;5049621;28;24816;-72
2021/12/19 07:57:35;;;;;;;13.30;6.88;;;;;;;-1.08;100.00;97153.78;5049580;28;24956;-72
2021/12/19 08:00:02;;;;;;;23.27;7.40;;;;;;;-1.11;100.00;97153.78;5041301;28;24454;-72
2021/12/19 08:02:28;;;;;;;30.75;6.85;;;;;;;-1.14;100.00;97155.47;5035638;28;24790;-71
2021/12/19 08:04:54;;;;;;;17.30;7.20;;;;;;;-1.12;100.00;97153.78;5029753;28;25027;-71
2021/12/19 08:07:23;;;;;;;16.08;6.57;;;;;;;-1.07;100.00;97150.41;5029274;28;24466;-71
2021/12/19 08:10:00;;;;;;;37.10;6.68;;;;;;;-1.15;100.00;97148.66;5029878;28;24439;-72
2021/12/19 08:12:28;;;;;;;39.65;7.20;;;;;;;-1.33;100.00;97152.81;5030782;28;24426;-73
2021/12/19 08:14:54;;;;;;;40.95;5.60;;;;;;;-1.41;100.00;97145.97;5033148;28;24440;-73
2021/12/19 08:17:22;;;;;;;30.73;5.53;;;;;;;-1.32;100.00;97141.81;5032992;28;24415;-72
2021/12/19 08:19:49;;;;;;;23.42;6.13;;;;;;;-1.34;100.00;97145.16;5033318;28;24493;-72
2021/12/19 08:22:15;;;;;;;25.58;5.50;;;;;;;-1.37;100.00;97140.94;5033309;28;24422;-72
2021/12/19 08:24:42;;;;;;;22.60;5.83;;;;;;;-1.37;100.00;97145.16;5033190;28;24498;-72
2021/12/19 08:27:09;;;;;;;15.77;5.40;;;;;;;-1.27;100.00;97147.75;5032788;28;24423;-72
2021/12/19 08:29:37;;;;;;;31.73;5.73;;;;;;;-1.43;100.00;97145.97;5039184;28;24932;-72
2021/12/19 08:32:04;;;;;;;34.38;4.88;;;;;;;-1.40;100.00;97140.91;5045368;28;25024;-72
2021/12/19 08:34:31;;;;;;;27.30;4.72;;;;;;;-1.28;100.00;97135.91;5040808;28;24450;-70
2021/12/19 08:36:58;;;;;;;18.77;4.88;;;;;;;-1.42;100.00;97137.50;5044475;28;24801;-71
2021/12/19 08:39:28;;;;;;;34.75;5.32;;;;;;;-1.39;100.00;97137.53;5052808;28;24476;-71
2021/12/19 08:41:54;;;;;;;6.07;4.70;;;;;;;-1.23;100.00;97131.69;5052862;28;24436;-71
2021/12/19 08:44:21;;;;;;;12.70;4.78;;;;;;;-1.22;100.00;97125.78;5052600;28;24460;-71
2021/12/19 08:46:48;;;;;;;30.42;5.25;;;;;;;-1.20;100.00;97119.84;5052605;28;24423;-71
2021/12/19 08:49:15;;;;;;;13.52;4.88;;;;;;;-1.02;100.00;97123.31;5052982;28;24450;-71
2021/12/19 08:51:42;;;;;;;47.42;6.50;;;;;;;-0.73;100.00;97131.06;5044726;28;25014;-71
2021/12/19 08:54:09;;;;;;;32.85;6.10;;;;;;;-0.61;100.00;97137.88;5052097;28;24430;-71
2021/12/19 08:56:36;;;;;;;13.68;5.32;;;;;;;-0.69;100.00;97138.69;5052341;28;24446;-71
2021/12/19 08:59:04;;;;;;;8.93;4.60;;;;;;;-0.54;100.00;97129.41;5049718;28;24431;-72
2021/12/19 09:01:32;;;;;;;71.53;8.27;;;;;;;-0.77;100.00;97124.25;5040801;28;24478;-71
2021/12/19 09:04:00;;;;;;;64.25;7.43;;;;;;;-1.00;100.00;97121.63;5032426;28;24416;-72
2021/12/19 09:06:26;;;;;;;96.40;10.80;;;;;;;-1.14;100.00;97123.25;5032117;28;24505;-71
2021/12/19 09:08:53;;;;;;;60.28;9.38;;;;;;;-1.03;100.00;97113.16;5032304;28;24431;-71
2021/12/19 09:11:19;;;;;;;41.53;6.53;;;;;;;-1.02;100.00;97118.22;5032206;28;24522;-71
2021/12/19 09:13:46;;;;;;;68.45;8.82;;;;;;;-1.08;100.00;97113.09;5032294;28;24478;-72
2021/12/19 09:16:12;;;;;;;34.53;6.63;;;;;;;-1.07;100.00;97121.59;5031940;28;24439;-71
2021/12/19 09:18:39;;;;;;;71.88;8.38;;;;;;;-1.14;100.00;97114.78;5032295;28;24431;-72
2021/12/19 09:21:06;;;;;;;40.03;6.07;;;;;;;-1.16;100.00;97116.47;5032101;28;24435;-72
2021/12/19 09:23:33;;;;;;;21.58;5.85;;;;;;;-1.09;100.00;97118.19;5031653;28;24424;-72
2021/12/19 09:26:00;;;;;;;103.33;8.53;;;;;;;-1.23;100.00;97101.16;5031616;28;24489;-71
2021/12/19 09:28:26;;;;;;;63.53;7.53;;;;;;;-1.33;100.00;97103.69;5035438;28;24431;-72
2021/12/19 09:30:53;;;;;;;47.05;6.28;;;;;;;-1.30;100.00;97101.13;5042411;28;24485;-72
2021/12/19 09:33:19;;;;;;;34.42;6.57;;;;;;;-1.31;100.00;97107.06;5031918;28;24817;-72
2021/12/19 09:35:46;;;;;;;25.50;5.05;;;;;;;-1.19;100.00;97113.91;5031780;28;24489;-72
2021/12/19 09:38:14;;;;;;;61.50;6.00;;;;;;;-1.36;100.00;97117.22;5045035;28;24431;-72
2021/12/19 09:40:43;;;;;;;53.40;6.25;;;;;;;-1.53;100.00;97111.19;5043158;28;24533;-72
2021/12/19 09:43:41;;;;;;;60.42;5.75;;;;;;;-1.58;100.00;97118.78;5043088;28;24825;-72
2021/12/19 09:46:10;;;;;;;47.92;5.80;;;;;;;-1.56;100.00;97114.56;5042868;28;24976;-72
2021/12/19 09:48:38;;;;;;;20.07;4.80;;;;;;;-1.33;100.00;97119.78;5051290;28;24485;-72
2021/12/19 09:51:04;;;;;;;43.33;5.78;;;;;;;-1.36;100.00;97116.38;5042899;28;24486;-72
2021/12/19 09:53:32;;;;;;;6.13;4.43;;;;;;;-1.29;100.00;97116.41;5051607;28;24500;-72
2021/12/19 09:55:59;;;;;;;10.35;4.95;;;;;;;-1.13;100.00;97112.25;5035690;28;24452;-72
2021/12/19 09:58:25;;;;;;;17.08;5.35;;;;;;;-1.03;100.00;97101.28;5042984;28;24844;-72
2021/12/19 10:00:53;;;;;;;9.20;5.32;;;;;;;-0.84;100.00;97096.25;5051077;28;24434;-72
2021/12/19 10:03:20;;;;;;;14.60;5.28;;;;;;;-0.77;100.00;97088.66;5051180;28;24430;-72
2021/12/19 10:05:47;;;;;;;27.63;5.68;;;;;;;-0.69;100.00;97081.03;5051086;28;24503;-72
2021/12/19 10:08:24;;;;;;;37.20;6.28;;;;;;;-0.77;100.00;97073.38;5051244;28;24537;-72
2021/12/19 10:10:56;;;;;;;27.90;6.05;;;;;;;-0.85;100.00;97075.06;5042856;28;24431;-72
2021/12/19 10:13:31;;;;;;;9.93;5.70;;;;;;;-0.79;100.00;97071.66;5051184;28;24438;-73
2021/12/19 10:15:58;;;;;;;11.75;5.35;;;;;;;-0.70;100.00;97073.38;5050472;28;25043;-72
2021/12/19 10:18:25;;;;;;;15.68;6.05;;;;;;;-0.78;100.00;97070.81;5051135;28;24423;-73
2021/12/19 10:20:53;;;;;;;35.60;5.90;;;;;;;-0.89;100.00;97070.81;5050222;28;24438;-72
2021/12/19 10:23:23;;;;;;;12.02;5.95;;;;;;;-0.89;100.00;97059.75;5043942;28;24435;-73
2021/12/19 10:25:59;;;;;;;69.00;7.57;;;;;;;-1.04;100.00;97060.56;5049849;28;24438;-70
2021/12/19 10:28:26;;;;;;;93.95;6.47;;;;;;;-1.19;100.00;97048.66;5044584;28;24435;-70
2021/12/19 10:30:52;;;;;;;27.10;5.00;;;;;;;-1.04;100.00;97042.78;5033325;28;24432;-76
2021/12/19 10:33:22;;;;;;;22.55;5.13;;;;;;;-0.78;100.00;97051.34;5030689;28;24951;-73
2021/12/19 10:35:51;;;;;;;7.15;4.70;;;;;;;-0.69;100.00;97053.03;5039102;28;24444;-72
2021/12/19 10:38:20;;;;;;;15.80;5.22;;;;;;;-0.58;100.00;97056.47;5043217;28;24446;-72
2021/12/19 10:40:48;;;;;;;36.60;5.25;;;;;;;-0.73;100.00;97049.66;5050513;28;24434;-72
2021/12/19 10:43:18;;;;;;;14.48;3.78;;;;;;;-0.77;100.00;97042.00;5042552;28;24484;-72
2021/12/19 10:45:47;;;;;;;8.38;3.60;;;;;;;-0.78;100.00;97041.16;5050393;28;24419;-71
2021/12/19 10:48:24;;;;;;;4.78;3.30;;;;;;;-0.64;100.00;97032.69;5050610;28;24435;-72
2021/12/19 10:50:57;;;;;;;6.75;3.40;;;;;;;-0.52;100.00;97023.41;5050607;28;24813;-72
2021/12/19 10:53:29;;;;;;;9.00;3.22;;;;;;;-0.58;100.00;97023.38;5050475;28;24430;-72
2021/12/19 10:55:57;;;;;;;12.90;5.40;;;;;;;-0.58;100.00;97025.91;5050176;28;24449;-71
2021/12/19 10:58:32;;;;;;;5.15;4.65;;;;;;;-0.41;100.00;97017.44;5050388;28;24431;-71
2021/12/19 11:01:05;;;;;;;24.60;5.65;;;;;;;-0.30;100.00;97013.19;5050466;28;24423;-72
2021/12/19 11:03:59;;;;;;;13.65;6.03;;;;;;;-0.32;100.00;97013.19;5046408;28;24451;-72
2021/12/19 11:06:32;;;;;;;45.17;7.03;;;;;;;-0.49;100.00;97022.53;5015808;28;24440;-71
2021/12/19 11:09:00;;;;;;;34.30;6.85;;;;;;;-0.63;100.00;97004.72;5043690;28;24442;-72
2021/12/19 11:11:39;;;;;;;14.82;6.43;;;;;;;-0.52;100.00;96991.97;5047071;28;24438;-72
2021/12/19 11:14:07;;;;;;;15.80;5.95;;;;;;;-0.38;100.00;96986.91;5042082;28;24443;-72
2021/12/19 11:16:33;;;;;;;10.38;5.53;;;;;;;-0.31;100.00;96986.03;5049817;28;24465;-72
2021/12/19 11:19:00;;;;;;;31.73;6.57;;;;;;;-0.18;100.00;96972.47;5050417;28;24427;-72
2021/12/19 11:21:27;;;;;;;18.23;6.35;;;;;;;-0.14;100.00;96965.69;5050366;28;24419;-71
2021/12/19 11:23:53;;;;;;;17.70;6.10;;;;;;;-0.14;100.00;96956.34;5050274;28;24477;-72
2021/12/19 11:26:21;;;;;;;17.55;5.75;;;;;;;-0.22;100.00;96947.00;5049883;28;24422;-72
2021/12/19 11:28:48;;;;;;;26.17;5.35;;;;;;;-0.12;100.00;96946.97;5050190;28;25025;-71
2021/12/19 11:31:16;;;;;;;19.13;5.20;;;;;;;-0.07;100.00;96937.66;5050227;28;25010;-72
2021/12/19 11:34:00;;;;;;;13.23;5.43;;;;;;;-0.14;100.00;96938.50;5050366;28;24955;-72
2021/12/19 11:36:31;;;;;;;21.80;6.63;;;;;;;-0.41;100.00;96943.63;5038136;28;24444;-72
2021/12/19 11:39:01;;;;;;;25.35;6.05;;;;;;;-0.52;100.00;96934.31;5029987;28;24431;-72
2021/12/19 11:41:27;;;;;;;6.57;5.88;;;;;;;-0.34;100.00;96930.88;5030107;28;24420;-71
2021/12/19 11:43:56;;;;;;;8.77;5.57;;;;;;;-0.22;100.00;96919.84;5030099;28;24428;-72
2021/12/19 11:46:48;;;;;;;17.75;5.65;;;;;;;-0.19;100.00;96922.38;5030769;28;24878;-73
2021/12/19 11:49:20;;;;;;;12.05;5.22;;;;;;;-0.12;100.00;96921.50;5033193;28;24427;-72
2021/12/19 11:51:47;;;;;;;10.52;5.53;;;;;;;-0.08;100.00;96922.34;5033658;28;24979;-72
2021/12/19 11:54:15;;;;;;;6.28;5.25;;;;;;;0.01;100.00;96912.16;5034080;28;24424;-73
2021/12/19 11:57:06;;;;;;;5.97;4.78;;;;;;;0.02;100.00;96918.94;5033514;28;24450;-72
2021/12/19 11:59:32;;;;;;;15.90;6.10;;;;;;;0.27;100.00;96916.31;5033555;28;24428;-73
2021/12/19 12:02:21;;;;;;;8.68;5.53;;;;;;;0.48;100.00;96914.50;5033719;28;24422;-72
2021/12/19 12:05:23;;;;;;;6.03;5.25;;;;;;;0.37;100.00;96900.09;5049512;28;24438;-72
2021/12/19 12:08:12;;;;;;;12.20;5.90;;;;;;;0.37;100.00;96895.00;5050335;28;24431;-72
2021/12/19 12:11:10;;;;;;;6.90;6.20;;;;;;;0.29;100.00;96884.84;5053281;28;24465;-72
2021/12/19 12:13:40;;;;;;;7.05;5.68;;;;;;;0.24;100.00;96886.59;5053292;28;24802;-72